createdAt,value
2023-02-12T00:02:18.214Z,97587.13
2023-02-12T00:07:42.987Z,97606.44
2023-02-12T00:10:12.390Z,97605.56
2023-02-12T00:12:40.978Z,97605.44
2023-02-12T00:15:10.331Z,97603.84
2023-02-12T00:17:38.780Z,97622.47
2023-02-12T00:20:10.046Z,97619.94
2023-02-12T00:22:38.730Z,97619.88
2023-02-12T00:25:08.464Z,97619.84
2023-02-12T00:28:02.373Z,97612.31
2023-02-12T00:30:31.456Z,97602.25
2023-02-12T00:33:00.114Z,97606.50
2023-02-12T00:35:30.269Z,97611.34
2023-02-12T00:37:59.480Z,97603.88
2023-02-12T00:40:28.903Z,97602.13
2023-02-12T00:42:57.467Z,97600.38
2023-02-12T00:45:25.897Z,97602.00
2023-02-12T00:47:54.526Z,97603.66
2023-02-12T00:50:23.987Z,97609.69
2023-02-12T00:52:54.874Z,97616.50
2023-02-12T00:55:23.492Z,97613.94
2023-02-12T00:57:52.767Z,97608.66
2023-02-12T01:00:22.156Z,97610.50
2023-02-12T01:02:50.988Z,97618.19
2023-02-12T01:05:21.129Z,97618.19
2023-02-12T01:07:51.804Z,97609.75
2023-02-12T01:10:22.729Z,97596.13
2023-02-12T01:12:51.903Z,97602.94
2023-02-12T01:15:21.746Z,97606.19
2023-02-12T01:17:50.419Z,97601.25
2023-02-12T01:20:29.258Z,97612.31
2023-02-12T01:22:57.734Z,97615.63
2023-02-12T01:25:27.873Z,97611.47
2023-02-12T01:27:57.360Z,97615.56
2023-02-12T01:30:26.274Z,97625.41
2023-02-12T01:32:56.835Z,97635.81
2023-02-12T01:35:25.499Z,97644.16
2023-02-12T01:37:55.721Z,97647.53
2023-02-12T01:40:25.449Z,97648.38
2023-02-12T01:42:55.551Z,97657.63
2023-02-12T01:45:47.121Z,97642.34
2023-02-12T01:48:17.240Z,97640.59
2023-02-12T01:50:48.056Z,97648.25
2023-02-12T01:53:20.595Z,97650.78
2023-02-12T01:55:50.628Z,97652.50
2023-02-12T01:58:20.886Z,97655.81
2023-02-12T02:00:49.858Z,97643.22
2023-02-12T02:03:18.944Z,97653.28
2023-02-12T02:05:54.294Z,97648.34
2023-02-12T02:08:23.079Z,97639.94
2023-02-12T02:10:51.645Z,97640.88
2023-02-12T02:13:39.450Z,97644.22
2023-02-12T02:16:13.751Z,97643.50
2023-02-12T02:18:45.832Z,97645.22
2023-02-12T02:21:47.453Z,97652.13
2023-02-12T02:24:55.751Z,97651.41
2023-02-12T02:27:32.948Z,97659.00
2023-02-12T02:30:25.793Z,97656.44
2023-02-12T02:33:11.795Z,97653.91
2023-02-12T02:35:43.874Z,97651.41
2023-02-12T02:38:23.081Z,97649.75
2023-02-12T02:40:57.105Z,97643.94
2023-02-12T02:43:29.867Z,97645.63
2023-02-12T02:46:03.171Z,97648.16
2023-02-12T02:48:37.630Z,97653.19
2023-02-12T02:51:08.501Z,97659.91
2023-02-12T02:53:40.300Z,97657.41
2023-02-12T02:56:10.586Z,97654.03
2023-02-12T02:58:49.951Z,97656.59
2023-02-12T03:01:25.901Z,97664.13
2023-02-12T03:03:57.793Z,97671.69
2023-02-12T03:06:30.081Z,97676.72
2023-02-12T03:09:02.269Z,97676.66
2023-02-12T03:11:32.118Z,97692.75
2023-02-12T03:14:06.032Z,97698.50
2023-02-12T03:16:40.915Z,97687.59
2023-02-12T03:19:14.057Z,97693.53
2023-02-12T03:21:47.580Z,97691.91
2023-02-12T03:24:20.687Z,97698.63
2023-02-12T03:26:53.058Z,97705.44
2023-02-12T03:29:21.887Z,97700.41
2023-02-12T03:32:01.577Z,97694.50
2023-02-12T03:34:50.652Z,97687.75
2023-02-12T03:37:23.106Z,97696.97
2023-02-12T03:39:56.466Z,97705.47
2023-02-12T03:42:34.206Z,97708.94
2023-02-12T03:45:06.740Z,97709.06
2023-02-12T03:47:44.780Z,97700.53
2023-02-12T03:50:16.439Z,97708.25
2023-02-12T03:52:45.637Z,97713.16
2023-02-12T03:55:32.862Z,97718.44
2023-02-12T03:58:03.153Z,97721.00
2023-02-12T04:00:37.595Z,97722.75
2023-02-12T04:03:09.035Z,97714.34
2023-02-12T04:05:37.952Z,97721.06
2023-02-12T04:08:09.400Z,97731.22
2023-02-12T04:10:44.190Z,97727.09
2023-02-12T04:13:19.630Z,97722.91
2023-02-12T04:16:04.286Z,97729.53
2023-02-12T04:18:46.220Z,97734.66
2023-02-12T04:21:26.340Z,97741.34
2023-02-12T04:24:00.591Z,97744.75
2023-02-12T04:26:37.497Z,97757.41
2023-02-12T04:29:14.605Z,97756.56
2023-02-12T04:31:49.081Z,97759.09
2023-02-12T04:34:22.801Z,97763.19
2023-02-12T04:36:54.467Z,97764.16
2023-02-12T04:39:27.291Z,97760.78
2023-02-12T04:41:55.881Z,97761.72
2023-02-12T04:44:31.022Z,97767.78
2023-02-12T04:47:01.389Z,97764.47
2023-02-12T04:49:31.753Z,97762.75
2023-02-12T04:52:00.500Z,97771.97
2023-02-12T04:54:29.450Z,97771.97
2023-02-12T04:56:57.900Z,97777.13
2023-02-12T04:59:26.785Z,97776.34
2023-02-12T05:01:57.904Z,97779.75
2023-02-12T05:04:26.800Z,97785.84
2023-02-12T05:06:57.233Z,97779.97
2023-02-12T05:09:25.917Z,97784.34
2023-02-12T05:11:54.321Z,97789.53
2023-02-12T05:14:26.879Z,97792.09
2023-02-12T05:16:55.431Z,97798.00
2023-02-12T05:19:24.190Z,97803.84
2023-02-12T05:21:55.081Z,97808.03
2023-02-12T05:24:26.173Z,97809.72
2023-02-12T05:26:54.732Z,97807.19
2023-02-12T05:29:23.750Z,97801.28
2023-02-12T05:31:52.383Z,97798.00
2023-02-12T05:34:21.295Z,97801.50
2023-02-12T05:36:49.800Z,97796.59
2023-02-12T05:39:18.655Z,97797.53
2023-02-12T05:41:48.831Z,97808.34
2023-02-12T05:44:17.430Z,97797.25
2023-02-12T05:46:45.937Z,97804.81
2023-02-12T05:49:14.677Z,97801.47
2023-02-12T05:51:44.210Z,97800.66
2023-02-12T05:54:12.909Z,97799.72
2023-02-12T05:56:45.526Z,97803.97
2023-02-12T05:59:18.218Z,97804.59
2023-02-12T06:01:47.825Z,97801.41
2023-02-12T06:04:17.689Z,97805.84
2023-02-12T06:06:46.736Z,97805.13
2023-02-12T06:09:15.748Z,97825.47
2023-02-12T06:11:44.922Z,97835.63
2023-02-12T06:14:17.063Z,97839.81
2023-02-12T06:16:47.199Z,97843.16
2023-02-12T06:19:15.960Z,97857.50
2023-02-12T06:21:47.408Z,97857.50
2023-02-12T06:24:17.766Z,97856.72
2023-02-12T06:26:46.608Z,97866.13
2023-02-12T06:29:16.597Z,97862.13
2023-02-12T06:31:47.466Z,97856.41
2023-02-12T06:34:18.468Z,97859.94
2023-02-12T06:36:49.958Z,97869.22
2023-02-12T06:39:19.368Z,97867.63
2023-02-12T06:42:12.554Z,97868.53
2023-02-12T06:44:42.810Z,97868.59
2023-02-12T06:47:11.477Z,97863.53
2023-02-12T06:49:40.009Z,97863.50
2023-02-12T06:52:08.774Z,97862.63
2023-02-12T06:54:37.646Z,97871.09
2023-02-12T06:57:06.625Z,97871.97
2023-02-12T06:59:35.297Z,97872.75
2023-02-12T07:02:07.568Z,97877.69
2023-02-12T07:04:36.120Z,97874.06
2023-02-12T07:07:05.752Z,97875.63
2023-02-12T07:09:34.421Z,97875.44
2023-02-12T07:12:02.857Z,97882.81
2023-02-12T07:14:31.531Z,97884.34
2023-02-12T07:17:03.980Z,97890.94
2023-02-12T07:19:34.061Z,97895.13
2023-02-12T07:22:02.933Z,97891.75
2023-02-12T07:24:31.889Z,97900.16
2023-02-12T07:27:00.838Z,97897.63
2023-02-12T07:29:29.601Z,97911.16
2023-02-12T07:31:59.502Z,97911.97
2023-02-12T07:34:28.066Z,97907.66
2023-02-12T07:36:58.190Z,97905.09
2023-02-12T07:39:35.348Z,97904.06
2023-02-12T07:42:04.318Z,97901.47
2023-02-12T07:44:34.501Z,97903.94
2023-02-12T07:47:03.990Z,97905.56
2023-02-12T07:49:32.436Z,97907.03
2023-02-12T07:52:02.590Z,97914.56
2023-02-12T07:54:31.254Z,97920.41
2023-02-12T07:57:00.972Z,97914.53
2023-02-12T07:59:30.210Z,97919.69
2023-02-12T08:02:01.359Z,97912.09
2023-02-12T08:04:33.256Z,97927.38
2023-02-12T08:07:03.850Z,97923.06
2023-02-12T08:09:32.482Z,97925.44
2023-02-12T08:12:00.802Z,97925.34
2023-02-12T08:14:30.054Z,97919.31
2023-02-12T08:16:58.743Z,97931.06
2023-02-12T08:19:27.687Z,97933.53
2023-02-12T08:21:57.509Z,97934.25
2023-02-12T08:24:27.737Z,97944.38
2023-02-12T08:26:56.514Z,97946.66
2023-02-12T08:29:27.364Z,97944.69
2023-02-12T08:31:59.502Z,97954.56
2023-02-12T08:34:30.036Z,97956.88
2023-02-12T08:36:59.131Z,97952.44
2023-02-12T08:39:30.907Z,97953.19
2023-02-12T08:43:08.972Z,97954.34
2023-02-12T08:45:37.517Z,97953.38
2023-02-12T08:48:06.251Z,97955.75
2023-02-12T08:50:35.835Z,97951.28
2023-02-12T08:53:04.436Z,97958.91
2023-02-12T08:55:34.194Z,97959.88
2023-02-12T08:58:04.059Z,97955.50
2023-02-12T09:00:32.848Z,97957.84
2023-02-12T09:03:02.345Z,97962.78
2023-02-12T09:05:30.786Z,97961.91
2023-02-12T09:08:02.290Z,97953.31
2023-02-12T09:10:31.063Z,97959.19
2023-02-12T09:13:01.010Z,97960.81
2023-02-12T09:15:30.163Z,97960.09
2023-02-12T09:17:59.252Z,97976.25
2023-02-12T09:20:29.315Z,97980.41
2023-02-12T09:22:58.086Z,97975.13
2023-02-12T09:25:29.028Z,97980.31
2023-02-12T09:28:01.597Z,97982.81
2023-02-12T09:30:30.449Z,97980.97
2023-02-12T09:32:59.273Z,97982.09
2023-02-12T09:35:30.320Z,97990.78
2023-02-12T09:37:59.038Z,97986.59
2023-02-12T09:40:35.419Z,97992.38
2023-02-12T09:43:18.588Z,97998.34
2023-02-12T09:45:51.863Z,97998.16
2023-02-12T09:48:32.860Z,98003.44
2023-02-12T09:51:02.858Z,98009.31
2023-02-12T09:53:33.049Z,98008.47
2023-02-12T09:56:01.995Z,98010.50
2023-02-12T09:58:35.910Z,98019.84
2023-02-12T10:01:17.020Z,98017.53
2023-02-12T10:03:46.391Z,98023.41
2023-02-12T10:06:17.046Z,98020.16
2023-02-12T10:09:12.456Z,98019.22
2023-02-12T10:11:48.919Z,98025.13
2023-02-12T10:14:31.641Z,98025.19
2023-02-12T10:17:03.666Z,98022.53
2023-02-12T10:19:51.831Z,98025.44
2023-02-12T10:22:26.428Z,98026.31
2023-02-12T10:25:05.661Z,98018.84
2023-02-12T10:27:41.113Z,98024.69
2023-02-12T10:30:21.816Z,98017.75
2023-02-12T10:32:53.671Z,98012.28
2023-02-12T10:35:24.662Z,98012.28
2023-02-12T10:37:58.094Z,98011.59
2023-02-12T10:40:30.177Z,98011.38
2023-02-12T10:43:01.164Z,98012.09
2023-02-12T10:45:35.804Z,98005.59
2023-02-12T10:48:09.118Z,98006.03
2023-02-12T10:50:52.825Z,98006.16
2023-02-12T10:53:24.054Z,98003.84
2023-02-12T10:56:14.299Z,98002.69
2023-02-12T10:58:44.501Z,98006.13
2023-02-12T11:01:19.830Z,97995.63
2023-02-12T11:03:51.378Z,97995.78
2023-02-12T11:06:26.039Z,98000.94
2023-02-12T11:08:54.890Z,97998.81
2023-02-12T11:11:26.475Z,98002.16
2023-02-12T11:13:57.078Z,97993.72
2023-02-12T11:16:32.192Z,97994.44
2023-02-12T11:19:02.635Z,97995.91
2023-02-12T11:21:32.540Z,97990.63
2023-02-12T11:24:22.952Z,97996.22
2023-02-12T11:26:52.043Z,97996.06
2023-02-12T11:29:25.017Z,97998.81
2023-02-12T11:32:08.834Z,97998.78
2023-02-12T11:34:38.007Z,98000.44
2023-02-12T11:37:17.918Z,98002.16
2023-02-12T11:40:00.241Z,98003.88
2023-02-12T11:42:31.684Z,97997.06
2023-02-12T11:45:01.621Z,97996.06
2023-02-12T11:47:34.058Z,97991.63
2023-02-12T11:50:07.500Z,97993.44
2023-02-12T11:52:37.822Z,97994.25
2023-02-12T11:55:10.156Z,97999.34
2023-02-12T11:57:39.876Z,97991.72
2023-02-12T12:00:18.257Z,97993.34
2023-02-12T12:02:54.071Z,97997.06
2023-02-12T12:05:24.361Z,97995.31
2023-02-12T12:08:04.757Z,97997.06
2023-02-12T12:10:37.554Z,97992.16
2023-02-12T12:13:10.821Z,97983.53
2023-02-12T12:16:01.067Z,97981.72
2023-02-12T12:19:00.332Z,97984.28
2023-02-12T12:21:32.330Z,97975.91
2023-02-12T12:24:02.930Z,97978.19
2023-02-12T12:26:34.960Z,97984.09
2023-02-12T12:29:07.496Z,97977.19
2023-02-12T12:31:38.271Z,97976.06
2023-02-12T12:34:10.998Z,97977.53
2023-02-12T12:37:04.121Z,97971.19
2023-02-12T12:39:37.835Z,97964.28
2023-02-12T12:42:39.098Z,97964.81
2023-02-12T12:45:22.273Z,97968.44
2023-02-12T12:48:03.912Z,97960.38
2023-02-12T12:50:51.659Z,97972.06
2023-02-12T12:53:33.702Z,97959.88
2023-02-12T12:56:14.541Z,97966.91
2023-02-12T12:59:32.551Z,97957.91
2023-02-12T13:02:51.101Z,97957.06
2023-02-12T13:05:49.520Z,97966.59
2023-02-12T13:08:32.002Z,97961.38
2023-02-12T13:11:08.401Z,97965.50
2023-02-12T13:13:38.962Z,97969.72
2023-02-12T13:16:18.486Z,97962.25
2023-02-12T13:19:03.445Z,97966.91
2023-02-12T13:21:45.454Z,97978.34
2023-02-12T13:24:22.807Z,97983.56
2023-02-12T13:26:54.942Z,97978.84
2023-02-12T13:29:27.277Z,97977.72
2023-02-12T13:31:58.989Z,97979.56
2023-02-12T13:34:30.016Z,97976.25
2023-02-12T13:37:01.646Z,97977.84
2023-02-12T13:39:34.397Z,97977.94
2023-02-12T13:42:12.458Z,97972.09
2023-02-12T13:44:51.334Z,97969.56
2023-02-12T13:47:25.641Z,97970.41
2023-02-12T13:49:57.851Z,97967.88
2023-02-12T13:52:34.484Z,97966.31
2023-02-12T13:55:16.371Z,97963.69
2023-02-12T13:57:45.114Z,97966.09
2023-02-12T14:00:46.930Z,97958.16
2023-02-12T14:03:25.466Z,97962.16
2023-02-12T14:06:10.282Z,97958.47
2023-02-12T14:08:42.551Z,97964.16
2023-02-12T14:11:13.783Z,97967.50
2023-02-12T14:13:55.670Z,97968.56
2023-02-12T14:16:45.042Z,97965.34
2023-02-12T14:19:39.492Z,97966.16
2023-02-12T14:22:15.436Z,97961.25
2023-02-12T14:25:03.598Z,97964.50
2023-02-12T14:27:46.849Z,97960.34
2023-02-12T14:30:31.658Z,97962.09
2023-02-12T14:33:12.281Z,97966.56
2023-02-12T14:35:44.684Z,97966.81
2023-02-12T14:38:58.037Z,97972.06
2023-02-12T14:41:38.049Z,97969.97
2023-02-12T14:44:42.601Z,97966.81
2023-02-12T14:47:59.812Z,97970.19
2023-02-12T14:50:50.664Z,97971.81
2023-02-12T14:53:28.591Z,97963.38
2023-02-12T14:55:58.573Z,97978.50
2023-02-12T14:58:31.137Z,97975.81
2023-02-12T15:01:27.482Z,97971.63
2023-02-12T15:04:10.738Z,97979.13
2023-02-12T15:06:41.569Z,97980.66
2023-02-12T15:09:11.943Z,97978.13
2023-02-12T15:11:46.263Z,97986.59
2023-02-12T15:14:21.814Z,97984.91
2023-02-12T15:16:55.986Z,97982.28
2023-02-12T15:19:35.845Z,97976.31
2023-02-12T15:22:06.127Z,97979.66
2023-02-12T15:24:35.366Z,97985.53
2023-02-12T15:27:04.637Z,97985.44
2023-02-12T15:29:47.278Z,97984.59
2023-02-12T15:32:21.357Z,97978.00
2023-02-12T15:34:51.190Z,97971.25
2023-02-12T15:37:24.076Z,97974.69
2023-02-12T15:39:54.968Z,97970.56
2023-02-12T15:42:29.122Z,97986.63
2023-02-12T15:45:10.069Z,97978.34
2023-02-12T15:47:39.168Z,97977.72
2023-02-12T15:50:08.501Z,97986.59
2023-02-12T15:52:39.853Z,97985.94
2023-02-12T15:55:17.714Z,97988.75
2023-02-12T15:57:47.443Z,97989.78
2023-02-12T16:00:31.161Z,97995.88
2023-02-12T16:02:59.874Z,97985.06
2023-02-12T16:05:28.852Z,97986.88
2023-02-12T16:08:22.998Z,97987.00
2023-02-12T16:10:54.476Z,97994.81
2023-02-12T16:13:30.525Z,97994.88
2023-02-12T16:16:08.931Z,97989.81
2023-02-12T16:18:44.672Z,97993.19
2023-02-12T16:21:18.663Z,97997.44
2023-02-12T16:23:47.861Z,98005.09
2023-02-12T16:26:21.709Z,97999.31
2023-02-12T16:28:52.472Z,97998.59
2023-02-12T16:31:23.735Z,98004.56
2023-02-12T16:33:53.573Z,98005.41
2023-02-12T16:36:33.084Z,98007.94
2023-02-12T16:39:03.709Z,98009.75
2023-02-12T16:41:34.056Z,98011.53
2023-02-12T16:44:31.926Z,98015.84
2023-02-12T16:47:02.501Z,98013.31
2023-02-12T16:49:31.038Z,98021.00
2023-02-12T16:52:23.236Z,98022.66
2023-02-12T16:54:51.895Z,98026.94
2023-02-12T16:57:20.901Z,98023.59
2023-02-12T16:59:50.170Z,98027.00
2023-02-12T17:02:20.077Z,98032.03
2023-02-12T17:04:48.874Z,98038.00
2023-02-12T17:07:20.768Z,98035.44
2023-02-12T17:09:59.050Z,98039.81
2023-02-12T17:12:28.253Z,98041.66
2023-02-12T17:14:57.192Z,98039.19
2023-02-12T17:17:27.265Z,98033.44
2023-02-12T17:19:55.750Z,98036.84
2023-02-12T17:22:26.292Z,98033.41
2023-02-12T17:24:54.872Z,98028.34
2023-02-12T17:27:23.701Z,98026.69
2023-02-12T17:30:01.776Z,98035.91
2023-02-12T17:32:33.732Z,98033.38
2023-02-12T17:35:02.657Z,98033.47
2023-02-12T17:37:31.201Z,98024.22
2023-02-12T17:40:01.123Z,98033.47
2023-02-12T17:42:34.740Z,98039.38
2023-02-12T17:45:03.796Z,98038.50
2023-02-12T17:47:44.340Z,98041.91
2023-02-12T17:50:15.181Z,98039.34
2023-02-12T17:52:44.022Z,98041.84
2023-02-12T17:55:17.704Z,98032.66
2023-02-12T17:58:46.137Z,98033.59
2023-02-12T18:01:17.956Z,98031.94
2023-02-12T18:03:48.404Z,98026.06
2023-02-12T18:06:23.617Z,98030.31
2023-02-12T18:08:52.632Z,98029.53
2023-02-12T18:11:21.505Z,98037.13
2023-02-12T18:13:52.582Z,98030.38
2023-02-12T18:16:25.102Z,98032.06
2023-02-12T18:18:55.734Z,98037.16
2023-02-12T18:21:24.634Z,98031.28
2023-02-12T18:23:54.473Z,98036.34
2023-02-12T18:26:23.224Z,98042.28
2023-02-12T18:28:54.008Z,98044.81
2023-02-12T18:31:22.743Z,98053.25
2023-02-12T18:33:51.907Z,98045.66
2023-02-12T18:36:22.987Z,98045.63
2023-02-12T18:38:53.523Z,98046.53
2023-02-12T18:41:25.167Z,98051.66
2023-02-12T18:43:53.974Z,98051.75
2023-02-12T18:46:25.243Z,98049.13
2023-02-12T18:48:54.498Z,98049.09
2023-02-12T18:51:27.470Z,98048.22
2023-02-12T18:53:57.437Z,98054.94
2023-02-12T18:56:26.069Z,98054.94
2023-02-12T18:59:02.187Z,98052.50
2023-02-12T19:01:31.033Z,98049.97
2023-02-12T19:04:04.707Z,98049.13
2023-02-12T19:06:36.007Z,98048.41
2023-02-12T19:09:05.820Z,98044.19
2023-02-12T19:11:34.168Z,98039.09
2023-02-12T19:14:03.089Z,98045.78
2023-02-12T19:16:33.691Z,98050.00
2023-02-12T19:19:03.037Z,98047.47
2023-02-12T19:21:35.480Z,98049.09
2023-02-12T19:24:05.328Z,98053.34
2023-02-12T19:26:35.882Z,98050.00
2023-02-12T19:29:11.273Z,98044.06
2023-02-12T19:31:42.212Z,98046.59
2023-02-12T19:34:17.240Z,98045.78
2023-02-12T19:36:48.241Z,98046.66
2023-02-12T19:39:19.086Z,98053.44
2023-02-12T19:41:52.723Z,98035.97
2023-02-12T19:44:23.392Z,98056.84
2023-02-12T19:46:55.277Z,98050.22
2023-02-12T19:49:26.383Z,98051.00
2023-02-12T19:51:56.663Z,98049.31
2023-02-12T19:54:25.867Z,98055.25
2023-02-12T19:56:55.435Z,98054.41
2023-02-12T19:59:25.431Z,98055.25
2023-02-12T20:01:54.247Z,98051.84
2023-02-12T20:04:23.837Z,98045.16
2023-02-12T20:06:52.523Z,98048.53
2023-02-12T20:09:23.647Z,98048.53
2023-02-12T20:11:55.736Z,98046.03
2023-02-12T20:14:25.133Z,98056.19
2023-02-12T20:16:56.893Z,98046.91
2023-02-12T20:19:28.742Z,98046.09
2023-02-12T20:21:58.466Z,98046.09
2023-02-12T20:24:30.363Z,98047.78
2023-02-12T20:27:00.611Z,98051.16
2023-02-12T20:29:30.132Z,98057.94
2023-02-12T20:31:58.880Z,98053.78
2023-02-12T20:34:27.845Z,98052.81
2023-02-12T20:36:56.735Z,98056.22
2023-02-12T20:39:25.963Z,98057.06
2023-02-12T20:41:56.016Z,98059.53
2023-02-12T20:44:24.939Z,98062.00
2023-02-12T20:46:57.097Z,98055.31
2023-02-12T20:49:26.304Z,98053.59
2023-02-12T20:51:54.862Z,98051.13
2023-02-12T20:54:23.770Z,98049.47
2023-02-12T20:56:53.025Z,98054.53
2023-02-12T20:59:23.723Z,98058.72
2023-02-12T21:01:52.451Z,98060.38
2023-02-12T21:04:21.307Z,98059.53
2023-02-12T21:06:52.464Z,98067.22
2023-02-12T21:09:21.106Z,98067.22
2023-02-12T21:11:50.068Z,98064.66
2023-02-12T21:14:23.579Z,98058.09
2023-02-12T21:16:57.481Z,98072.38
2023-02-12T21:19:27.078Z,98064.75
2023-02-12T21:21:57.699Z,98066.41
2023-02-12T21:24:27.649Z,98063.00
2023-02-12T21:26:57.581Z,98061.31
2023-02-12T21:29:27.720Z,98058.84
2023-02-12T21:31:58.055Z,98062.22
2023-02-12T21:34:26.906Z,98072.28
2023-02-12T21:36:56.609Z,98056.28
2023-02-12T21:39:32.227Z,98058.03
2023-02-12T21:42:03.034Z,98058.03
2023-02-12T21:44:35.590Z,98058.84
2023-02-12T21:47:07.806Z,98046.22
2023-02-12T21:49:39.737Z,98049.66
2023-02-12T21:52:08.432Z,98053.88
2023-02-12T21:54:37.151Z,98052.19
2023-02-12T21:57:08.011Z,98043.72
2023-02-12T21:59:37.013Z,98050.47
2023-02-12T22:02:07.597Z,98042.94
2023-02-12T22:04:39.320Z,98050.56
2023-02-12T22:07:08.532Z,98053.09
2023-02-12T22:09:37.632Z,98048.84
2023-02-12T22:12:06.848Z,98048.75
2023-02-12T22:14:35.572Z,98049.53
2023-02-12T22:17:07.446Z,98048.69
2023-02-12T22:19:37.312Z,98050.34
2023-02-12T22:22:08.083Z,98047.75
2023-02-12T22:24:38.134Z,98046.09
2023-02-12T22:27:39.206Z,98048.69
2023-02-12T22:30:09.074Z,98050.41
2023-02-12T22:32:37.815Z,98048.69
2023-02-12T22:35:08.733Z,98046.19
2023-02-12T22:37:37.596Z,98009.53
2023-02-12T22:40:07.119Z,98054.69
2023-02-12T22:42:36.704Z,98055.50
2023-02-12T22:45:06.077Z,98050.44
2023-02-12T22:47:35.505Z,98046.22
2023-02-12T22:50:18.612Z,98050.44
2023-02-12T22:52:47.685Z,98042.84
2023-02-12T22:55:16.558Z,98037.78
2023-02-12T22:57:45.043Z,98038.63
2023-02-12T23:00:16.624Z,98038.59
2023-02-12T23:02:45.485Z,98037.78
2023-02-12T23:05:18.762Z,98037.84
2023-02-12T23:07:47.344Z,98040.38
2023-02-12T23:10:15.739Z,98043.75
2023-02-12T23:12:47.136Z,98043.75
2023-02-12T23:15:15.876Z,98047.16
2023-02-12T23:17:47.683Z,98046.31
2023-02-12T23:20:16.992Z,98037.03
2023-02-12T23:22:47.435Z,98042.13
2023-02-12T23:25:17.811Z,98028.63
2023-02-12T23:27:46.640Z,98032.94
2023-02-12T23:30:15.793Z,98032.94
2023-02-12T23:32:44.486Z,98032.06
2023-02-12T23:35:13.136Z,98031.22
2023-02-12T23:37:41.545Z,98032.03
2023-02-12T23:40:12.721Z,98032.88
2023-02-12T23:42:41.391Z,98032.00
2023-02-12T23:45:10.880Z,98024.44
2023-02-12T23:47:39.466Z,98022.75
2023-02-12T23:50:09.152Z,98021.03
2023-02-12T23:52:37.631Z,98019.31
2023-02-12T23:55:06.913Z,98021.94
2023-02-12T23:57:37.307Z,98018.53
